createdAt,value
2019-02-15T00:01:51.109Z,1.77
2019-02-15T00:04:26.072Z,1.55
2019-02-15T00:07:01.060Z,1.65
2019-02-15T00:09:36.007Z,1.19
2019-02-15T00:12:10.963Z,1.10
2019-02-15T00:14:48.544Z,0.91
2019-02-15T00:17:57.989Z,1.10
2019-02-15T00:20:36.670Z,1.10
2019-02-15T00:23:11.591Z,1.18
2019-02-15T00:25:45.373Z,1.37
2019-02-15T00:28:19.820Z,0.61
2019-02-15T00:30:54.485Z,1.19
2019-02-15T00:33:29.206Z,1.10
2019-02-15T00:36:03.788Z,1.10
2019-02-15T00:38:38.499Z,1.29
2019-02-15T00:41:13.141Z,1.07
2019-02-15T00:43:47.835Z,1.07
2019-02-15T00:46:37.103Z,0.57
2019-02-15T00:49:17.997Z,0.74
2019-02-15T00:52:18.030Z,0.69
2019-02-15T00:55:10.885Z,0.78
2019-02-15T00:58:03.949Z,0.61
2019-02-15T01:00:58.540Z,0.71
2019-02-15T01:03:51.557Z,1.29
2019-02-15T01:08:13.049Z,0.84
2019-02-15T01:11:13.028Z,0.77
2019-02-15T01:13:47.658Z,0.63
2019-02-15T01:16:21.270Z,0.70
2019-02-15T01:18:55.647Z,0.58
2019-02-15T01:21:29.272Z,0.28
2019-02-15T01:24:03.732Z,0.38
2019-02-15T01:26:49.477Z,0.42
2019-02-15T01:29:33.988Z,0.44
2019-02-15T01:32:46.687Z,0.44
2019-02-15T01:35:45.996Z,0.88
2019-02-15T01:38:37.970Z,0.90
2019-02-15T01:41:32.452Z,1.06
2019-02-15T01:44:22.801Z,0.79
2019-02-15T01:47:01.876Z,0.01
2019-02-15T01:49:36.792Z,-0.06
2019-02-15T01:52:12.655Z,0.16
2019-02-15T01:54:47.615Z,0.46
2019-02-15T01:57:22.667Z,0.38
2019-02-15T01:59:56.467Z,-0.16
2019-02-15T02:02:31.225Z,-0.11
2019-02-15T02:05:06.573Z,-0.11
2019-02-15T02:07:42.144Z,-0.05
2019-02-15T02:10:17.439Z,-0.01
2019-02-15T02:12:52.062Z,0.37
2019-02-15T02:15:26.964Z,0.37
2019-02-15T02:18:01.732Z,0.35
2019-02-15T02:21:47.054Z,0.73
2019-02-15T02:24:22.061Z,0.76
2019-02-15T02:26:56.938Z,0.58
2019-02-15T02:29:31.831Z,0.62
2019-02-15T02:32:06.808Z,0.79
2019-02-15T02:34:42.318Z,0.70
2019-02-15T02:37:17.169Z,0.32
2019-02-15T02:39:53.011Z,0.23
2019-02-15T02:42:29.856Z,0.28
2019-02-15T02:45:05.049Z,0.27
2019-02-15T02:47:41.553Z,0.20
2019-02-15T02:50:18.653Z,0.14
2019-02-15T02:52:52.734Z,0.14
2019-02-15T02:55:27.579Z,0.08
2019-02-15T02:58:02.153Z,-0.51
2019-02-15T03:00:37.323Z,-0.51
2019-02-15T03:03:12.135Z,-0.41
2019-02-15T03:05:46.915Z,-0.57
2019-02-15T03:08:21.713Z,-0.50
2019-02-15T03:10:56.549Z,-0.08
2019-02-15T03:13:31.451Z,-0.02
2019-02-15T03:16:06.691Z,-0.02
2019-02-15T03:18:41.637Z,-0.03
2019-02-15T03:22:43.043Z,0.06
2019-02-15T03:25:21.183Z,-0.14
2019-02-15T03:27:56.053Z,-0.05
2019-02-15T03:30:31.182Z,-0.01
2019-02-15T03:33:07.534Z,0.06
2019-02-15T03:35:54.593Z,-0.02
2019-02-15T03:38:45.713Z,-0.02
2019-02-15T03:41:26.477Z,0.19
2019-02-15T03:44:00.814Z,0.14
2019-02-15T03:46:35.312Z,0.27
2019-02-15T03:49:09.642Z,0.26
2019-02-15T03:51:43.623Z,0.04
2019-02-15T03:54:18.173Z,0.15
2019-02-15T03:56:52.675Z,0.15
2019-02-15T03:59:27.031Z,0.04
2019-02-15T04:02:01.542Z,0.04
2019-02-15T04:04:38.543Z,0.07
2019-02-15T04:07:12.784Z,0.07
2019-02-15T04:09:47.039Z,0.16
2019-02-15T04:12:21.691Z,0.20
2019-02-15T04:14:55.598Z,-0.02
2019-02-15T04:17:30.330Z,-0.22
2019-02-15T04:20:06.648Z,-0.22
2019-02-15T04:22:40.855Z,0.02
2019-02-15T04:25:15.669Z,-0.04
2019-02-15T04:27:50.342Z,-0.23
2019-02-15T04:30:24.787Z,-0.26
2019-02-15T04:32:59.608Z,-0.31
2019-02-15T04:35:34.182Z,-0.71
2019-02-15T04:38:09.054Z,-0.71
2019-02-15T04:40:44.535Z,-0.98
2019-02-15T04:43:19.320Z,-1.19
2019-02-15T04:45:53.956Z,-1.19
2019-02-15T04:48:29.638Z,-0.86
2019-02-15T04:51:05.592Z,-0.09
2019-02-15T04:53:40.155Z,-0.28
2019-02-15T04:56:14.785Z,-0.28
2019-02-15T04:58:49.443Z,-0.08
2019-02-15T05:01:24.354Z,-0.15
2019-02-15T05:03:59.172Z,-0.09
2019-02-15T05:06:33.940Z,-0.31
2019-02-15T05:09:08.873Z,-0.15
2019-02-15T05:11:43.661Z,0.07
2019-02-15T05:14:18.184Z,-0.12
2019-02-15T05:16:53.337Z,-0.12
2019-02-15T05:19:28.161Z,-0.53
2019-02-15T05:22:02.976Z,-0.37
2019-02-15T05:24:37.792Z,-0.96
2019-02-15T05:27:12.568Z,-0.57
2019-02-15T05:29:47.527Z,-0.65
2019-02-15T05:32:25.315Z,-0.65
2019-02-15T05:35:00.291Z,-0.72
2019-02-15T05:37:35.776Z,-0.64
2019-02-15T05:40:10.313Z,-0.40
2019-02-15T05:42:45.044Z,-0.03
2019-02-15T05:45:20.448Z,-0.30
2019-02-15T05:47:55.050Z,-0.43
2019-02-15T05:50:29.800Z,-0.59
2019-02-15T05:53:04.648Z,-0.60
2019-02-15T05:55:39.332Z,-0.46
2019-02-15T05:58:14.456Z,-0.46
2019-02-15T06:00:49.508Z,-0.57
2019-02-15T06:03:23.526Z,-0.42
2019-02-15T06:05:58.070Z,-0.76
2019-02-15T06:08:32.826Z,-0.76
2019-02-15T06:11:08.370Z,-0.52
2019-02-15T06:13:43.882Z,-0.50
2019-02-15T06:16:20.097Z,-0.31
2019-02-15T06:18:55.026Z,-0.54
2019-02-15T06:21:29.998Z,-0.78
2019-02-15T06:24:05.000Z,-0.68
2019-02-15T06:26:39.568Z,-0.80
2019-02-15T06:29:13.749Z,-1.00
2019-02-15T06:31:49.040Z,-1.34
2019-02-15T06:34:24.120Z,-1.55
2019-02-15T06:36:59.127Z,-1.20
2019-02-15T06:39:33.873Z,-1.43
2019-02-15T06:42:09.049Z,-1.17
2019-02-15T06:44:44.833Z,-0.82
2019-02-15T06:47:19.735Z,-0.26
2019-02-15T06:49:53.514Z,-0.30
2019-02-15T06:52:28.671Z,-0.43
2019-02-15T06:55:03.000Z,-0.43
2019-02-15T06:57:39.115Z,-0.46
2019-02-15T07:00:30.509Z,-0.57
2019-02-15T07:03:23.846Z,-1.26
2019-02-15T07:05:58.919Z,-1.26
2019-02-15T07:08:33.606Z,-1.40
2019-02-15T07:11:07.514Z,-1.04
2019-02-15T07:13:44.555Z,-1.00
2019-02-15T07:16:19.527Z,-0.42
2019-02-15T07:18:53.968Z,-0.12
2019-02-15T07:21:28.941Z,0.17
2019-02-15T07:24:03.946Z,-0.02
2019-02-15T07:26:38.548Z,0.09
2019-02-15T07:29:13.061Z,0.28
2019-02-15T07:31:47.627Z,-0.38
2019-02-15T07:34:21.584Z,0.07
2019-02-15T07:36:56.559Z,-0.33
2019-02-15T07:39:31.504Z,-0.33
2019-02-15T07:42:06.310Z,-0.53
2019-02-15T07:44:41.179Z,-0.53
2019-02-15T07:47:16.066Z,-0.04
2019-02-15T07:49:50.929Z,-0.05
2019-02-15T07:52:25.726Z,-0.02
2019-02-15T07:55:01.576Z,0.53
2019-02-15T07:57:35.736Z,0.55
2019-02-15T08:00:13.107Z,0.96
2019-02-15T08:02:48.059Z,1.37
2019-02-15T08:05:23.605Z,0.73
2019-02-15T08:07:58.705Z,0.30
2019-02-15T08:10:33.528Z,0.53
2019-02-15T08:13:08.051Z,0.65
2019-02-15T08:15:51.302Z,1.27
2019-02-15T08:18:20.276Z,1.55
2019-02-15T08:20:55.310Z,1.78
2019-02-15T08:23:30.431Z,1.98
2019-02-15T08:26:05.325Z,1.64
2019-02-15T08:28:40.151Z,1.23
2019-02-15T08:31:16.866Z,1.13
2019-02-15T08:33:52.020Z,1.59
2019-02-15T08:36:27.042Z,1.90
2019-02-15T08:39:02.337Z,2.40
2019-02-15T08:41:38.568Z,2.71
2019-02-15T08:44:12.500Z,3.14
2019-02-15T08:46:46.612Z,3.61
2019-02-15T08:49:21.061Z,6.28
2019-02-15T08:51:56.050Z,8.81
2019-02-15T08:54:31.129Z,9.41
2019-02-15T08:57:06.323Z,9.80
2019-02-15T08:59:42.657Z,11.63
2019-02-15T09:02:23.583Z,13.41
2019-02-15T09:04:58.387Z,15.37
2019-02-15T09:07:36.299Z,16.13
2019-02-15T09:10:22.105Z,16.13
2019-02-15T09:12:57.437Z,16.50
2019-02-15T09:15:32.107Z,17.18
2019-02-15T09:18:06.699Z,17.93
2019-02-15T09:20:41.305Z,19.28
2019-02-15T09:23:16.470Z,18.67
2019-02-15T09:25:51.027Z,17.36
2019-02-15T09:28:31.677Z,17.36
2019-02-15T09:31:07.445Z,17.66
2019-02-15T09:33:43.516Z,18.84
2019-02-15T09:36:20.318Z,18.84
2019-02-15T09:39:00.375Z,19.76
2019-02-15T09:41:37.852Z,20.32
2019-02-15T09:44:14.834Z,19.17
2019-02-15T09:46:52.634Z,18.21
2019-02-15T09:49:26.841Z,18.71
2019-02-15T09:52:01.883Z,18.70
2019-02-15T09:54:36.183Z,18.81
2019-02-15T09:57:18.988Z,18.48
2019-02-15T09:59:55.064Z,18.53
2019-02-15T10:02:30.083Z,18.28
2019-02-15T10:05:08.601Z,18.87
2019-02-15T10:07:43.807Z,17.64
2019-02-15T10:10:18.798Z,16.11
2019-02-15T10:12:53.114Z,16.25
2019-02-15T10:15:28.909Z,16.24
2019-02-15T10:18:03.986Z,17.11
2019-02-15T10:20:39.130Z,17.64
2019-02-15T10:23:14.168Z,18.55
2019-02-15T10:25:48.784Z,19.12
2019-02-15T10:28:24.043Z,19.28
2019-02-15T10:30:59.567Z,19.84
2019-02-15T10:33:33.677Z,19.96
2019-02-15T10:36:08.997Z,20.06
2019-02-15T10:38:44.774Z,20.67
2019-02-15T10:41:21.558Z,20.67
2019-02-15T10:43:57.868Z,20.22
2019-02-15T10:46:37.778Z,20.82
2019-02-15T10:49:11.793Z,21.18
2019-02-15T10:51:46.431Z,21.45
2019-02-15T10:54:21.443Z,20.52
2019-02-15T10:56:56.979Z,20.00
2019-02-15T11:02:05.312Z,20.63
2019-02-15T11:04:41.144Z,20.31
2019-02-15T11:07:15.994Z,20.54
2019-02-15T11:09:51.610Z,20.53
2019-02-15T11:12:25.432Z,20.54
2019-02-15T11:15:00.726Z,20.08
2019-02-15T11:17:35.332Z,20.08
2019-02-15T11:20:12.693Z,20.55
2019-02-15T11:22:47.584Z,20.65
2019-02-15T11:25:21.606Z,22.23
2019-02-15T11:27:55.945Z,23.10
2019-02-15T11:30:30.748Z,21.79
2019-02-15T11:33:05.308Z,22.23
2019-02-15T11:35:39.964Z,23.69
2019-02-15T11:38:15.678Z,22.83
2019-02-15T11:40:50.070Z,23.78
2019-02-15T11:43:24.954Z,23.04
2019-02-15T11:46:00.019Z,23.94
2019-02-15T11:48:34.301Z,23.65
2019-02-15T11:51:08.823Z,23.81
2019-02-15T11:53:43.503Z,24.53
2019-02-15T11:56:17.257Z,25.07
2019-02-15T11:58:51.475Z,26.03
2019-02-15T12:01:26.027Z,24.68
2019-02-15T12:04:00.848Z,24.84
2019-02-15T12:06:37.315Z,25.56
2019-02-15T12:09:12.172Z,26.03
2019-02-15T12:11:46.825Z,26.44
2019-02-15T12:14:21.939Z,26.35
2019-02-15T12:17:05.271Z,25.88
2019-02-15T12:19:32.359Z,26.72
2019-02-15T12:22:07.100Z,26.72
2019-02-15T12:24:41.856Z,26.70
2019-02-15T12:27:16.445Z,26.64
2019-02-15T12:29:51.327Z,26.56
2019-02-15T12:32:25.896Z,26.30
2019-02-15T12:35:00.454Z,26.06
2019-02-15T12:37:35.075Z,24.24
2019-02-15T12:40:09.853Z,24.24
2019-02-15T12:42:44.552Z,24.54
2019-02-15T12:45:19.343Z,24.80
2019-02-15T12:47:54.490Z,24.80
2019-02-15T12:50:29.294Z,25.13
2019-02-15T12:53:03.661Z,23.65
2019-02-15T12:55:38.050Z,22.97
2019-02-15T12:58:12.942Z,21.61
2019-02-15T13:00:47.509Z,20.69
2019-02-15T13:03:22.630Z,21.53
2019-02-15T13:06:00.280Z,21.53
2019-02-15T13:08:35.093Z,21.41
2019-02-15T13:11:09.707Z,20.16
2019-02-15T13:13:44.053Z,19.82
2019-02-15T13:16:18.839Z,18.98
2019-02-15T13:18:53.637Z,19.56
2019-02-15T13:21:27.259Z,19.52
2019-02-15T13:24:01.950Z,19.65
2019-02-15T13:26:36.715Z,19.78
2019-02-15T13:29:11.614Z,20.13
2019-02-15T13:31:45.849Z,19.61
2019-02-15T13:34:20.585Z,19.61
2019-02-15T13:36:55.134Z,19.50
2019-02-15T13:39:29.823Z,19.52
2019-02-15T13:42:04.644Z,19.02
2019-02-15T13:44:38.482Z,19.21
2019-02-15T13:47:13.069Z,19.46
2019-02-15T13:49:47.605Z,19.46
2019-02-15T13:52:21.269Z,19.42
2019-02-15T13:54:55.740Z,18.92
2019-02-15T13:57:30.047Z,18.82
2019-02-15T14:00:05.068Z,18.91
2019-02-15T14:02:40.994Z,17.99
2019-02-15T14:05:15.593Z,18.16
2019-02-15T14:07:49.963Z,17.29
2019-02-15T14:10:24.820Z,17.29
2019-02-15T14:13:45.102Z,17.42
2019-02-15T14:16:55.403Z,17.36
2019-02-15T14:20:42.743Z,17.36
2019-02-15T14:23:47.067Z,16.91
2019-02-15T14:26:25.313Z,17.24
2019-02-15T14:28:59.627Z,16.76
2019-02-15T14:31:33.434Z,16.73
2019-02-15T14:34:07.774Z,16.63
2019-02-15T14:36:42.147Z,17.06
2019-02-15T14:39:16.707Z,17.18
2019-02-15T14:41:50.693Z,17.43
2019-02-15T14:44:25.307Z,17.10
2019-02-15T14:47:00.069Z,17.14
2019-02-15T14:49:34.770Z,17.12
2019-02-15T14:52:09.876Z,16.85
2019-02-15T14:54:44.994Z,16.77
2019-02-15T14:57:20.008Z,16.81
2019-02-15T14:59:54.935Z,16.98
2019-02-15T15:02:29.881Z,16.83
2019-02-15T15:05:06.519Z,16.72
2019-02-15T15:07:41.326Z,16.83
2019-02-15T15:10:16.072Z,16.83
2019-02-15T15:12:50.953Z,17.07
2019-02-15T15:15:25.639Z,16.99
2019-02-15T15:18:10.716Z,17.12
2019-02-15T15:20:37.316Z,16.74
2019-02-15T15:23:12.632Z,16.71
2019-02-15T15:25:46.929Z,16.51
2019-02-15T15:28:21.674Z,16.31
2019-02-15T15:31:13.443Z,16.48
2019-02-15T15:33:48.534Z,16.48
2019-02-15T15:36:23.327Z,16.58
2019-02-15T15:38:58.143Z,16.32
2019-02-15T15:41:32.997Z,16.51
2019-02-15T15:44:08.062Z,16.32
2019-02-15T15:46:43.331Z,16.31
2019-02-15T15:49:18.527Z,16.28
2019-02-15T15:51:53.318Z,16.22
2019-02-15T15:54:28.188Z,16.18
2019-02-15T15:57:02.958Z,16.11
2019-02-15T15:59:37.670Z,15.74
2019-02-15T16:02:11.462Z,15.78
2019-02-15T16:04:46.066Z,15.78
2019-02-15T16:07:21.052Z,15.88
2019-02-15T16:09:56.166Z,15.73
2019-02-15T16:12:31.025Z,15.88
2019-02-15T16:15:07.029Z,15.85
2019-02-15T16:17:42.821Z,15.98
2019-02-15T16:20:17.944Z,15.75
2019-02-15T16:22:52.630Z,15.70
2019-02-15T16:25:26.834Z,15.30
2019-02-15T16:28:01.990Z,15.30
2019-02-15T16:31:07.035Z,15.14
2019-02-15T16:33:41.854Z,14.81
2019-02-15T16:36:16.687Z,14.69
2019-02-15T16:38:51.592Z,14.45
2019-02-15T16:41:25.929Z,14.47
2019-02-15T16:44:01.035Z,14.36
2019-02-15T16:47:01.187Z,13.99
2019-02-15T16:51:06.690Z,13.77
2019-02-15T16:53:43.067Z,13.73
2019-02-15T16:56:18.340Z,13.60
2019-02-15T16:58:53.790Z,13.40
2019-02-15T17:01:28.655Z,13.36
2019-02-15T17:04:03.045Z,13.12
2019-02-15T17:06:38.164Z,12.97
2019-02-15T17:09:17.019Z,12.79
2019-02-15T17:11:52.174Z,12.47
2019-02-15T17:14:27.522Z,12.52
2019-02-15T17:17:02.544Z,12.24
2019-02-15T17:19:36.631Z,12.24
2019-02-15T17:22:11.162Z,12.28
2019-02-15T17:24:49.096Z,12.04
2019-02-15T17:27:24.637Z,11.75
2019-02-15T17:29:59.454Z,11.63
2019-02-15T17:32:35.723Z,11.66
2019-02-15T17:35:11.337Z,11.66
2019-02-15T17:37:46.306Z,11.60
2019-02-15T17:40:21.512Z,11.22
2019-02-15T17:42:58.399Z,10.82
2019-02-15T17:45:33.320Z,10.82
2019-02-15T17:48:09.102Z,10.85
2019-02-15T17:50:44.506Z,10.59
2019-02-15T17:53:19.368Z,10.42
2019-02-15T17:55:54.334Z,10.42
2019-02-15T17:58:29.081Z,9.84
2019-02-15T18:01:04.323Z,9.90
2019-02-15T18:03:39.486Z,9.99
2019-02-15T18:06:14.500Z,10.16
2019-02-15T18:08:48.715Z,10.16
2019-02-15T18:11:23.493Z,10.23
2019-02-15T18:13:58.229Z,10.16
2019-02-15T18:16:33.110Z,10.04
2019-02-15T18:19:10.081Z,9.88
2019-02-15T18:21:45.312Z,9.67
2019-02-15T18:24:20.149Z,9.11
2019-02-15T18:26:55.541Z,8.83
2019-02-15T18:29:30.332Z,8.67
2019-02-15T18:32:05.314Z,9.02
2019-02-15T18:34:40.469Z,8.91
2019-02-15T18:37:15.112Z,8.98
2019-02-15T18:39:50.112Z,8.96
2019-02-15T18:42:25.100Z,9.19
2019-02-15T18:45:13.020Z,8.88
2019-02-15T18:47:48.203Z,8.45
2019-02-15T18:50:23.423Z,8.21
2019-02-15T18:52:58.326Z,7.91
2019-02-15T18:55:33.300Z,7.93
2019-02-15T18:58:08.317Z,8.03
2019-02-15T19:00:43.678Z,8.32
2019-02-15T19:03:19.561Z,8.20
2019-02-15T19:05:53.477Z,7.76
2019-02-15T19:08:29.168Z,7.57
2019-02-15T19:11:03.715Z,7.57
2019-02-15T19:13:39.341Z,6.98
2019-02-15T19:16:13.899Z,6.87
2019-02-15T19:18:49.554Z,7.46
2019-02-15T19:21:23.274Z,7.47
2019-02-15T19:23:57.864Z,7.47
2019-02-15T19:26:32.325Z,7.40
2019-02-15T19:29:06.823Z,7.38
2019-02-15T19:31:41.558Z,7.50
2019-02-15T19:34:15.622Z,7.29
2019-02-15T19:36:49.475Z,6.98
2019-02-15T19:39:24.098Z,7.05
2019-02-15T19:41:59.013Z,7.05
2019-02-15T19:44:33.849Z,6.94
2019-02-15T19:47:08.910Z,6.81
2019-02-15T19:49:43.559Z,6.48
2019-02-15T19:52:17.872Z,6.32
2019-02-15T19:54:52.471Z,6.32
2019-02-15T19:57:27.523Z,5.82
2019-02-15T20:00:01.299Z,5.82
2019-02-15T20:02:36.529Z,5.77
2019-02-15T20:05:11.060Z,6.17
2019-02-15T20:07:46.039Z,6.42
2019-02-15T20:10:21.807Z,6.42
2019-02-15T20:12:56.304Z,6.38
2019-02-15T20:15:31.050Z,6.37
2019-02-15T20:18:05.671Z,6.21
2019-02-15T20:20:40.174Z,6.32
2019-02-15T20:23:14.867Z,6.36
2019-02-15T20:25:49.592Z,6.40
2019-02-15T20:28:23.525Z,6.18
2019-02-15T20:31:00.969Z,5.99
2019-02-15T20:33:38.700Z,5.66
2019-02-15T20:36:33.146Z,5.72
2019-02-15T20:39:07.840Z,5.83
2019-02-15T20:41:43.861Z,5.64
2019-02-15T20:44:19.907Z,5.68
2019-02-15T20:46:54.705Z,5.58
2019-02-15T20:49:29.512Z,5.68
2019-02-15T20:52:04.096Z,5.44
2019-02-15T20:54:38.737Z,5.44
2019-02-15T20:57:13.314Z,5.34
2019-02-15T20:59:48.864Z,5.48
2019-02-15T21:02:23.960Z,4.94
2019-02-15T21:04:58.825Z,4.56
2019-02-15T21:07:34.168Z,4.71
2019-02-15T21:10:10.713Z,5.08
2019-02-15T21:12:45.516Z,5.15
2019-02-15T21:15:20.831Z,5.01
2019-02-15T21:17:55.557Z,5.01
2019-02-15T21:20:30.146Z,4.95
2019-02-15T21:23:04.633Z,4.95
2019-02-15T21:25:38.537Z,4.84
2019-02-15T21:28:13.321Z,4.48
2019-02-15T21:30:48.532Z,4.48
2019-02-15T21:33:23.333Z,4.67
2019-02-15T21:35:57.658Z,4.51
2019-02-15T21:38:32.327Z,4.64
2019-02-15T21:41:07.041Z,4.34
2019-02-15T21:43:42.137Z,4.27
2019-02-15T21:46:18.101Z,4.34
2019-02-15T21:48:52.659Z,4.52
2019-02-15T21:51:27.175Z,4.02
2019-02-15T21:54:01.808Z,3.82
2019-02-15T21:56:36.698Z,3.95
2019-02-15T21:59:11.113Z,4.16
2019-02-15T22:01:46.673Z,4.32
2019-02-15T22:04:21.051Z,4.10
2019-02-15T22:06:56.465Z,4.08
2019-02-15T22:09:31.147Z,4.12
2019-02-15T22:12:06.069Z,4.12
2019-02-15T22:14:41.124Z,4.12
2019-02-15T22:17:15.975Z,4.25
2019-02-15T22:19:50.617Z,4.11
2019-02-15T22:22:27.329Z,3.96
2019-02-15T22:25:01.985Z,3.75
2019-02-15T22:27:40.829Z,3.59
2019-02-15T22:30:16.309Z,3.29
2019-02-15T22:32:50.844Z,3.54
2019-02-15T22:35:25.644Z,3.66
2019-02-15T22:37:59.444Z,3.64
2019-02-15T22:40:37.802Z,3.50
2019-02-15T22:43:24.321Z,3.37
2019-02-15T22:45:58.983Z,3.44
2019-02-15T22:48:33.958Z,3.06
2019-02-15T22:51:08.666Z,3.03
2019-02-15T22:53:43.017Z,3.12
2019-02-15T22:56:17.603Z,2.64
2019-02-15T22:58:51.513Z,2.66
2019-02-15T23:01:26.546Z,2.88
2019-02-15T23:04:01.552Z,2.88
2019-02-15T23:06:36.643Z,3.27
2019-02-15T23:09:21.902Z,3.27
2019-02-15T23:11:56.994Z,3.00
2019-02-15T23:14:31.580Z,2.95
2019-02-15T23:17:05.553Z,2.65
2019-02-15T23:19:40.027Z,2.84
2019-02-15T23:22:14.921Z,2.84
2019-02-15T23:24:49.519Z,2.58
2019-02-15T23:27:24.565Z,2.44
2019-02-15T23:29:58.553Z,2.44
2019-02-15T23:32:33.151Z,2.79
2019-02-15T23:35:07.838Z,2.79
2019-02-15T23:37:42.567Z,2.78
2019-02-15T23:40:17.046Z,2.73
2019-02-15T23:42:52.085Z,2.19
2019-02-15T23:45:27.339Z,1.52
2019-02-15T23:48:02.555Z,1.75
2019-02-15T23:50:38.664Z,1.71
2019-02-15T23:53:13.735Z,2.07
2019-02-15T23:55:48.632Z,2.07
2019-02-15T23:58:22.999Z,1.67
